sensor_id;sensor_type;location;lat;lon;timestamp;P1;durP1;ratioP1;P2;durP2;ratioP2
83278;SDS011;73398;51.844;10.790;2024-01-30T00:01:16;7.43;;;5.15;;
83278;SDS011;73398;51.844;10.790;2024-01-30T00:03:42;6.93;;;5.22;;
83278;SDS011;73398;51.844;10.790;2024-01-30T00:06:08;9.60;;;6.13;;
83278;SDS011;73398;51.844;10.790;2024-01-30T00:08:34;8.68;;;6.05;;
83278;SDS011;73398;51.844;10.790;2024-01-30T00:11:00;10.90;;;6.55;;
83278;SDS011;73398;51.844;10.790;2024-01-30T00:13:26;11.48;;;7.20;;
83278;SDS011;73398;51.844;10.790;2024-01-30T00:15:52;11.05;;;6.28;;
83278;SDS011;73398;51.844;10.790;2024-01-30T00:18:18;10.57;;;6.47;;
83278;SDS011;73398;51.844;10.790;2024-01-30T00:20:44;11.88;;;7.03;;
83278;SDS011;73398;51.844;10.790;2024-01-30T00:23:10;23.13;;;9.63;;
83278;SDS011;73398;51.844;10.790;2024-01-30T00:25:36;24.52;;;12.18;;
83278;SDS011;73398;51.844;10.790;2024-01-30T00:28:02;15.80;;;9.13;;
83278;SDS011;73398;51.844;10.790;2024-01-30T00:30:28;20.73;;;10.43;;
83278;SDS011;73398;51.844;10.790;2024-01-30T00:32:54;18.42;;;9.35;;
83278;SDS011;73398;51.844;10.790;2024-01-30T00:35:20;16.85;;;8.73;;
83278;SDS011;73398;51.844;10.790;2024-01-30T00:37:47;15.48;;;8.32;;
83278;SDS011;73398;51.844;10.790;2024-01-30T00:40:13;16.85;;;8.93;;
83278;SDS011;73398;51.844;10.790;2024-01-30T00:42:41;17.58;;;8.88;;
83278;SDS011;73398;51.844;10.790;2024-01-30T00:45:11;14.98;;;7.25;;
83278;SDS011;73398;51.844;10.790;2024-01-30T00:47:37;11.27;;;7.07;;
83278;SDS011;73398;51.844;10.790;2024-01-30T00:50:03;10.90;;;6.45;;
83278;SDS011;73398;51.844;10.790;2024-01-30T00:52:29;13.65;;;7.60;;
83278;SDS011;73398;51.844;10.790;2024-01-30T00:54:55;30.70;;;13.52;;
83278;SDS011;73398;51.844;10.790;2024-01-30T00:57:21;37.17;;;15.23;;
83278;SDS011;73398;51.844;10.790;2024-01-30T00:59:46;17.00;;;8.50;;
83278;SDS011;73398;51.844;10.790;2024-01-30T01:02:12;20.77;;;8.80;;
83278;SDS011;73398;51.844;10.790;2024-01-30T01:04:40;12.13;;;7.03;;
83278;SDS011;73398;51.844;10.790;2024-01-30T01:07:06;11.05;;;6.88;;
83278;SDS011;73398;51.844;10.790;2024-01-30T01:09:31;9.73;;;7.15;;
83278;SDS011;73398;51.844;10.790;2024-01-30T01:11:57;11.40;;;7.10;;
83278;SDS011;73398;51.844;10.790;2024-01-30T01:14:23;12.88;;;7.90;;
83278;SDS011;73398;51.844;10.790;2024-01-30T01:16:50;13.70;;;7.07;;
83278;SDS011;73398;51.844;10.790;2024-01-30T01:19:16;9.65;;;6.20;;
83278;SDS011;73398;51.844;10.790;2024-01-30T01:21:42;8.10;;;4.97;;
83278;SDS011;73398;51.844;10.790;2024-01-30T01:24:08;5.72;;;4.50;;
83278;SDS011;73398;51.844;10.790;2024-01-30T01:26:34;8.38;;;5.18;;
83278;SDS011;73398;51.844;10.790;2024-01-30T01:29:00;4.78;;;3.90;;
83278;SDS011;73398;51.844;10.790;2024-01-30T01:31:26;7.63;;;4.60;;
83278;SDS011;73398;51.844;10.790;2024-01-30T01:33:54;7.63;;;4.93;;
83278;SDS011;73398;51.844;10.790;2024-01-30T01:36:20;6.97;;;5.25;;
83278;SDS011;73398;51.844;10.790;2024-01-30T01:38:46;7.28;;;4.70;;
83278;SDS011;73398;51.844;10.790;2024-01-30T01:41:12;6.18;;;4.43;;
83278;SDS011;73398;51.844;10.790;2024-01-30T01:43:38;7.20;;;4.95;;
83278;SDS011;73398;51.844;10.790;2024-01-30T01:46:04;8.20;;;5.45;;
83278;SDS011;73398;51.844;10.790;2024-01-30T01:48:30;6.80;;;5.32;;
83278;SDS011;73398;51.844;10.790;2024-01-30T01:50:56;8.10;;;5.20;;
83278;SDS011;73398;51.844;10.790;2024-01-30T01:53:23;6.57;;;4.57;;
83278;SDS011;73398;51.844;10.790;2024-01-30T01:55:49;8.00;;;5.93;;
83278;SDS011;73398;51.844;10.790;2024-01-30T01:58:15;9.45;;;6.50;;
83278;SDS011;73398;51.844;10.790;2024-01-30T02:00:41;9.25;;;6.10;;
83278;SDS011;73398;51.844;10.790;2024-01-30T02:03:08;7.97;;;6.00;;
83278;SDS011;73398;51.844;10.790;2024-01-30T02:05:37;8.50;;;5.72;;
83278;SDS011;73398;51.844;10.790;2024-01-30T02:08:03;12.90;;;5.82;;
83278;SDS011;73398;51.844;10.790;2024-01-30T02:10:29;7.80;;;5.53;;
83278;SDS011;73398;51.844;10.790;2024-01-30T02:12:55;6.82;;;4.70;;
83278;SDS011;73398;51.844;10.790;2024-01-30T02:15:20;6.40;;;4.47;;
83278;SDS011;73398;51.844;10.790;2024-01-30T02:17:46;6.65;;;4.57;;
83278;SDS011;73398;51.844;10.790;2024-01-30T02:20:12;8.52;;;5.53;;
83278;SDS011;73398;51.844;10.790;2024-01-30T02:22:38;6.88;;;5.60;;
83278;SDS011;73398;51.844;10.790;2024-01-30T02:25:06;9.07;;;5.68;;
83278;SDS011;73398;51.844;10.790;2024-01-30T02:27:32;8.20;;;6.22;;
83278;SDS011;73398;51.844;10.790;2024-01-30T02:29:58;28.63;;;17.73;;
83278;SDS011;73398;51.844;10.790;2024-01-30T02:32:23;19.45;;;12.98;;
83278;SDS011;73398;51.844;10.790;2024-01-30T02:34:49;10.13;;;7.95;;
83278;SDS011;73398;51.844;10.790;2024-01-30T02:37:16;10.15;;;6.93;;
83278;SDS011;73398;51.844;10.790;2024-01-30T02:39:42;14.25;;;7.38;;
83278;SDS011;73398;51.844;10.790;2024-01-30T02:42:08;17.30;;;9.30;;
83278;SDS011;73398;51.844;10.790;2024-01-30T02:44:34;54.30;;;21.20;;
83278;SDS011;73398;51.844;10.790;2024-01-30T02:47:00;49.35;;;21.00;;
83278;SDS011;73398;51.844;10.790;2024-01-30T02:49:28;52.90;;;22.75;;
83278;SDS011;73398;51.844;10.790;2024-01-30T02:51:54;53.10;;;21.50;;
83278;SDS011;73398;51.844;10.790;2024-01-30T02:54:21;35.05;;;14.40;;
83278;SDS011;73398;51.844;10.790;2024-01-30T02:56:47;14.05;;;7.65;;
83278;SDS011;73398;51.844;10.790;2024-01-30T02:59:13;11.70;;;6.63;;
83278;SDS011;73398;51.844;10.790;2024-01-30T03:01:42;16.20;;;7.80;;
83278;SDS011;73398;51.844;10.790;2024-01-30T03:04:09;9.75;;;6.88;;
83278;SDS011;73398;51.844;10.790;2024-01-30T03:06:35;9.10;;;5.75;;
83278;SDS011;73398;51.844;10.790;2024-01-30T03:09:01;8.00;;;5.72;;
83278;SDS011;73398;51.844;10.790;2024-01-30T03:11:28;10.32;;;6.07;;
83278;SDS011;73398;51.844;10.790;2024-01-30T03:13:54;12.27;;;5.55;;
83278;SDS011;73398;51.844;10.790;2024-01-30T03:16:20;10.15;;;6.28;;
83278;SDS011;73398;51.844;10.790;2024-01-30T03:18:46;9.07;;;5.97;;
83278;SDS011;73398;51.844;10.790;2024-01-30T03:21:13;7.15;;;5.75;;
83278;SDS011;73398;51.844;10.790;2024-01-30T03:23:39;6.03;;;4.63;;
83278;SDS011;73398;51.844;10.790;2024-01-30T03:26:05;8.80;;;5.40;;
83278;SDS011;73398;51.844;10.790;2024-01-30T03:28:31;8.40;;;5.30;;
83278;SDS011;73398;51.844;10.790;2024-01-30T03:30:57;8.48;;;5.70;;
83278;SDS011;73398;51.844;10.790;2024-01-30T03:33:23;6.93;;;5.60;;
83278;SDS011;73398;51.844;10.790;2024-01-30T03:35:49;6.50;;;4.70;;
83278;SDS011;73398;51.844;10.790;2024-01-30T03:38:15;5.28;;;4.38;;
83278;SDS011;73398;51.844;10.790;2024-01-30T03:40:41;4.15;;;3.67;;
83278;SDS011;73398;51.844;10.790;2024-01-30T03:43:07;5.57;;;3.83;;
83278;SDS011;73398;51.844;10.790;2024-01-30T03:45:33;5.43;;;4.90;;
83278;SDS011;73398;51.844;10.790;2024-01-30T03:47:59;6.75;;;4.60;;
83278;SDS011;73398;51.844;10.790;2024-01-30T03:50:25;11.07;;;6.47;;
83278;SDS011;73398;51.844;10.790;2024-01-30T03:52:50;11.95;;;7.28;;
83278;SDS011;73398;51.844;10.790;2024-01-30T03:55:16;7.95;;;5.70;;
83278;SDS011;73398;51.844;10.790;2024-01-30T03:57:43;5.97;;;4.05;;
83278;SDS011;73398;51.844;10.790;2024-01-30T04:00:09;9.98;;;6.57;;
83278;SDS011;73398;51.844;10.790;2024-01-30T04:02:35;18.88;;;10.63;;
83278;SDS011;73398;51.844;10.790;2024-01-30T04:05:01;19.52;;;8.55;;
83278;SDS011;73398;51.844;10.790;2024-01-30T04:07:27;23.25;;;12.90;;
83278;SDS011;73398;51.844;10.790;2024-01-30T04:09:54;21.48;;;11.57;;
83278;SDS011;73398;51.844;10.790;2024-01-30T04:12:20;21.77;;;12.80;;
83278;SDS011;73398;51.844;10.790;2024-01-30T04:14:46;19.30;;;10.57;;
83278;SDS011;73398;51.844;10.790;2024-01-30T04:17:12;15.65;;;9.90;;
83278;SDS011;73398;51.844;10.790;2024-01-30T04:19:38;15.93;;;9.50;;
83278;SDS011;73398;51.844;10.790;2024-01-30T04:22:04;18.52;;;10.68;;
83278;SDS011;73398;51.844;10.790;2024-01-30T04:24:30;15.40;;;9.20;;
83278;SDS011;73398;51.844;10.790;2024-01-30T04:26:56;16.95;;;11.18;;
83278;SDS011;73398;51.844;10.790;2024-01-30T04:29:22;15.43;;;10.88;;
83278;SDS011;73398;51.844;10.790;2024-01-30T04:31:49;17.45;;;9.77;;
83278;SDS011;73398;51.844;10.790;2024-01-30T04:34:15;13.88;;;7.75;;
83278;SDS011;73398;51.844;10.790;2024-01-30T04:36:43;12.32;;;7.13;;
83278;SDS011;73398;51.844;10.790;2024-01-30T04:39:10;9.77;;;6.30;;
83278;SDS011;73398;51.844;10.790;2024-01-30T04:41:36;11.82;;;6.50;;
83278;SDS011;73398;51.844;10.790;2024-01-30T04:44:02;8.55;;;5.28;;
83278;SDS011;73398;51.844;10.790;2024-01-30T04:46:28;7.82;;;5.30;;
83278;SDS011;73398;51.844;10.790;2024-01-30T04:48:54;8.05;;;5.53;;
83278;SDS011;73398;51.844;10.790;2024-01-30T04:51:20;6.82;;;4.82;;
83278;SDS011;73398;51.844;10.790;2024-01-30T04:53:46;6.45;;;4.93;;
83278;SDS011;73398;51.844;10.790;2024-01-30T04:56:12;6.07;;;4.63;;
83278;SDS011;73398;51.844;10.790;2024-01-30T04:58:37;4.68;;;4.20;;
83278;SDS011;73398;51.844;10.790;2024-01-30T05:01:03;5.05;;;4.05;;
83278;SDS011;73398;51.844;10.790;2024-01-30T05:03:32;9.25;;;4.47;;
83278;SDS011;73398;51.844;10.790;2024-01-30T05:05:58;8.15;;;5.00;;
83278;SDS011;73398;51.844;10.790;2024-01-30T05:08:24;5.03;;;4.53;;
83278;SDS011;73398;51.844;10.790;2024-01-30T05:10:50;5.35;;;4.35;;
83278;SDS011;73398;51.844;10.790;2024-01-30T05:13:16;6.75;;;4.50;;
83278;SDS011;73398;51.844;10.790;2024-01-30T05:15:42;5.63;;;4.28;;
83278;SDS011;73398;51.844;10.790;2024-01-30T05:18:08;6.20;;;4.47;;
83278;SDS011;73398;51.844;10.790;2024-01-30T05:20:34;4.60;;;4.00;;
83278;SDS011;73398;51.844;10.790;2024-01-30T05:23:00;6.35;;;4.40;;
83278;SDS011;73398;51.844;10.790;2024-01-30T05:25:26;5.30;;;4.03;;
83278;SDS011;73398;51.844;10.790;2024-01-30T05:27:52;5.38;;;4.07;;
83278;SDS011;73398;51.844;10.790;2024-01-30T05:30:18;5.60;;;4.03;;
83278;SDS011;73398;51.844;10.790;2024-01-30T05:32:44;6.35;;;4.32;;
83278;SDS011;73398;51.844;10.790;2024-01-30T05:35:10;5.50;;;4.20;;
83278;SDS011;73398;51.844;10.790;2024-01-30T05:37:36;6.38;;;4.38;;
83278;SDS011;73398;51.844;10.790;2024-01-30T05:40:02;5.85;;;4.78;;
83278;SDS011;73398;51.844;10.790;2024-01-30T05:42:28;7.35;;;4.85;;
83278;SDS011;73398;51.844;10.790;2024-01-30T05:44:54;6.95;;;4.85;;
83278;SDS011;73398;51.844;10.790;2024-01-30T05:47:20;9.27;;;5.68;;
83278;SDS011;73398;51.844;10.790;2024-01-30T05:49:46;6.63;;;5.30;;
83278;SDS011;73398;51.844;10.790;2024-01-30T05:52:12;8.13;;;6.18;;
83278;SDS011;73398;51.844;10.790;2024-01-30T05:54:38;6.45;;;4.93;;
83278;SDS011;73398;51.844;10.790;2024-01-30T05:57:04;8.07;;;6.07;;
83278;SDS011;73398;51.844;10.790;2024-01-30T05:59:30;8.77;;;5.10;;
83278;SDS011;73398;51.844;10.790;2024-01-30T06:01:56;7.63;;;5.38;;
83278;SDS011;73398;51.844;10.790;2024-01-30T06:04:21;8.48;;;5.15;;
83278;SDS011;73398;51.844;10.790;2024-01-30T06:06:47;9.00;;;4.78;;
83278;SDS011;73398;51.844;10.790;2024-01-30T06:09:13;6.68;;;4.80;;
83278;SDS011;73398;51.844;10.790;2024-01-30T06:11:39;8.50;;;5.18;;
83278;SDS011;73398;51.844;10.790;2024-01-30T06:14:05;8.18;;;6.30;;
83278;SDS011;73398;51.844;10.790;2024-01-30T06:16:31;16.73;;;9.70;;
83278;SDS011;73398;51.844;10.790;2024-01-30T06:18:57;15.25;;;8.13;;
83278;SDS011;73398;51.844;10.790;2024-01-30T06:21:24;13.23;;;8.75;;
83278;SDS011;73398;51.844;10.790;2024-01-30T06:23:50;13.52;;;9.20;;
83278;SDS011;73398;51.844;10.790;2024-01-30T06:26:16;13.18;;;7.75;;
83278;SDS011;73398;51.844;10.790;2024-01-30T06:28:42;13.60;;;8.88;;
83278;SDS011;73398;51.844;10.790;2024-01-30T06:31:08;16.95;;;9.95;;
83278;SDS011;73398;51.844;10.790;2024-01-30T06:33:33;15.80;;;10.07;;
83278;SDS011;73398;51.844;10.790;2024-01-30T06:35:59;14.23;;;8.85;;
83278;SDS011;73398;51.844;10.790;2024-01-30T06:38:25;13.57;;;8.85;;
83278;SDS011;73398;51.844;10.790;2024-01-30T06:40:51;13.60;;;8.95;;
83278;SDS011;73398;51.844;10.790;2024-01-30T06:43:17;25.27;;;16.27;;
83278;SDS011;73398;51.844;10.790;2024-01-30T06:45:43;20.77;;;11.20;;
83278;SDS011;73398;51.844;10.790;2024-01-30T06:48:09;16.35;;;10.35;;
83278;SDS011;73398;51.844;10.790;2024-01-30T06:50:35;12.82;;;9.35;;
83278;SDS011;73398;51.844;10.790;2024-01-30T06:53:01;14.98;;;10.02;;
83278;SDS011;73398;51.844;10.790;2024-01-30T06:55:27;12.38;;;9.07;;
83278;SDS011;73398;51.844;10.790;2024-01-30T06:57:53;14.55;;;8.38;;
83278;SDS011;73398;51.844;10.790;2024-01-30T07:00:19;17.15;;;10.45;;
83278;SDS011;73398;51.844;10.790;2024-01-30T07:02:45;14.52;;;9.93;;
83278;SDS011;73398;51.844;10.790;2024-01-30T07:05:11;14.85;;;8.75;;
83278;SDS011;73398;51.844;10.790;2024-01-30T07:07:38;14.65;;;9.10;;
83278;SDS011;73398;51.844;10.790;2024-01-30T07:10:04;27.88;;;15.10;;
83278;SDS011;73398;51.844;10.790;2024-01-30T07:12:30;20.83;;;11.48;;
83278;SDS011;73398;51.844;10.790;2024-01-30T07:14:56;45.75;;;24.73;;
83278;SDS011;73398;51.844;10.790;2024-01-30T07:17:24;33.13;;;19.45;;
83278;SDS011;73398;51.844;10.790;2024-01-30T07:19:50;27.90;;;18.00;;
83278;SDS011;73398;51.844;10.790;2024-01-30T07:22:16;44.42;;;22.38;;
83278;SDS011;73398;51.844;10.790;2024-01-30T07:24:43;41.30;;;21.50;;
83278;SDS011;73398;51.844;10.790;2024-01-30T07:27:14;35.67;;;20.27;;
83278;SDS011;73398;51.844;10.790;2024-01-30T07:29:42;27.42;;;16.38;;
83278;SDS011;73398;51.844;10.790;2024-01-30T07:32:08;43.78;;;22.48;;
83278;SDS011;73398;51.844;10.790;2024-01-30T07:34:34;27.65;;;14.60;;
83278;SDS011;73398;51.844;10.790;2024-01-30T07:37:01;21.38;;;13.43;;
83278;SDS011;73398;51.844;10.790;2024-01-30T07:39:27;15.88;;;10.90;;
83278;SDS011;73398;51.844;10.790;2024-01-30T07:41:53;12.48;;;8.65;;
83278;SDS011;73398;51.844;10.790;2024-01-30T07:44:20;13.88;;;8.95;;
83278;SDS011;73398;51.844;10.790;2024-01-30T07:46:46;13.27;;;8.35;;
83278;SDS011;73398;51.844;10.790;2024-01-30T07:49:12;10.32;;;7.50;;
83278;SDS011;73398;51.844;10.790;2024-01-30T07:51:39;10.45;;;7.72;;
83278;SDS011;73398;51.844;10.790;2024-01-30T07:54:05;12.00;;;8.35;;
83278;SDS011;73398;51.844;10.790;2024-01-30T07:56:31;15.05;;;8.88;;
83278;SDS011;73398;51.844;10.790;2024-01-30T07:58:57;11.32;;;8.38;;
83278;SDS011;73398;51.844;10.790;2024-01-30T08:01:23;12.07;;;7.72;;
83278;SDS011;73398;51.844;10.790;2024-01-30T08:03:49;11.52;;;8.07;;
83278;SDS011;73398;51.844;10.790;2024-01-30T08:06:15;12.23;;;6.90;;
83278;SDS011;73398;51.844;10.790;2024-01-30T08:08:41;15.27;;;7.22;;
83278;SDS011;73398;51.844;10.790;2024-01-30T08:11:07;10.57;;;7.20;;
83278;SDS011;73398;51.844;10.790;2024-01-30T08:13:33;10.25;;;6.15;;
83278;SDS011;73398;51.844;10.790;2024-01-30T08:15:58;10.43;;;7.47;;
83278;SDS011;73398;51.844;10.790;2024-01-30T08:18:24;10.65;;;6.97;;
83278;SDS011;73398;51.844;10.790;2024-01-30T08:20:51;10.90;;;7.65;;
83278;SDS011;73398;51.844;10.790;2024-01-30T08:23:17;11.60;;;7.15;;
83278;SDS011;73398;51.844;10.790;2024-01-30T08:25:43;10.88;;;7.65;;
83278;SDS011;73398;51.844;10.790;2024-01-30T08:28:09;13.95;;;7.70;;
83278;SDS011;73398;51.844;10.790;2024-01-30T08:30:35;13.20;;;7.53;;
83278;SDS011;73398;51.844;10.790;2024-01-30T08:33:01;15.10;;;7.88;;
83278;SDS011;73398;51.844;10.790;2024-01-30T08:35:27;10.93;;;6.90;;
83278;SDS011;73398;51.844;10.790;2024-01-30T08:37:56;22.48;;;11.98;;
83278;SDS011;73398;51.844;10.790;2024-01-30T08:40:22;41.38;;;23.00;;
83278;SDS011;73398;51.844;10.790;2024-01-30T08:42:48;21.80;;;14.70;;
83278;SDS011;73398;51.844;10.790;2024-01-30T08:45:14;19.60;;;13.13;;
83278;SDS011;73398;51.844;10.790;2024-01-30T08:47:40;11.30;;;8.32;;
83278;SDS011;73398;51.844;10.790;2024-01-30T08:50:06;11.05;;;7.32;;
83278;SDS011;73398;51.844;10.790;2024-01-30T08:52:32;26.52;;;13.48;;
83278;SDS011;73398;51.844;10.790;2024-01-30T08:54:59;26.05;;;13.77;;
83278;SDS011;73398;51.844;10.790;2024-01-30T08:57:25;27.45;;;15.57;;
83278;SDS011;73398;51.844;10.790;2024-01-30T08:59:54;41.63;;;24.70;;
83278;SDS011;73398;51.844;10.790;2024-01-30T09:02:20;41.47;;;25.98;;
83278;SDS011;73398;51.844;10.790;2024-01-30T09:04:46;36.65;;;22.75;;
83278;SDS011;73398;51.844;10.790;2024-01-30T09:07:12;31.55;;;19.95;;
83278;SDS011;73398;51.844;10.790;2024-01-30T09:09:39;24.88;;;18.38;;
83278;SDS011;73398;51.844;10.790;2024-01-30T09:12:08;28.00;;;17.35;;
83278;SDS011;73398;51.844;10.790;2024-01-30T09:14:34;31.08;;;19.23;;
83278;SDS011;73398;51.844;10.790;2024-01-30T09:17:01;49.65;;;30.85;;
83278;SDS011;73398;51.844;10.790;2024-01-30T09:19:28;52.33;;;34.53;;
83278;SDS011;73398;51.844;10.790;2024-01-30T09:21:54;47.47;;;30.13;;
83278;SDS011;73398;51.844;10.790;2024-01-30T09:24:20;34.15;;;22.58;;
83278;SDS011;73398;51.844;10.790;2024-01-30T09:26:46;34.92;;;22.45;;
83278;SDS011;73398;51.844;10.790;2024-01-30T09:29:12;35.55;;;23.80;;
83278;SDS011;73398;51.844;10.790;2024-01-30T09:31:38;24.40;;;19.15;;
83278;SDS011;73398;51.844;10.790;2024-01-30T09:34:04;12.48;;;9.93;;
83278;SDS011;73398;51.844;10.790;2024-01-30T09:36:30;15.63;;;10.40;;
83278;SDS011;73398;51.844;10.790;2024-01-30T09:38:56;17.88;;;10.52;;
83278;SDS011;73398;51.844;10.790;2024-01-30T09:41:22;13.73;;;10.18;;
83278;SDS011;73398;51.844;10.790;2024-01-30T09:43:50;12.70;;;9.25;;
83278;SDS011;73398;51.844;10.790;2024-01-30T09:46:16;11.48;;;8.02;;
83278;SDS011;73398;51.844;10.790;2024-01-30T09:48:48;11.05;;;7.50;;
83278;SDS011;73398;51.844;10.790;2024-01-30T09:51:14;9.38;;;7.03;;
83278;SDS011;73398;51.844;10.790;2024-01-30T09:53:42;8.25;;;6.63;;
83278;SDS011;73398;51.844;10.790;2024-01-30T09:56:08;10.40;;;7.22;;
83278;SDS011;73398;51.844;10.790;2024-01-30T09:58:36;8.35;;;6.60;;
83278;SDS011;73398;51.844;10.790;2024-01-30T10:01:02;10.38;;;6.07;;
83278;SDS011;73398;51.844;10.790;2024-01-30T10:03:28;9.43;;;6.72;;
83278;SDS011;73398;51.844;10.790;2024-01-30T10:05:54;10.05;;;8.00;;
83278;SDS011;73398;51.844;10.790;2024-01-30T10:08:20;8.43;;;6.38;;
83278;SDS011;73398;51.844;10.790;2024-01-30T10:10:47;11.82;;;6.97;;
83278;SDS011;73398;51.844;10.790;2024-01-30T10:13:13;10.80;;;6.43;;
83278;SDS011;73398;51.844;10.790;2024-01-30T10:15:39;12.55;;;7.28;;
83278;SDS011;73398;51.844;10.790;2024-01-30T10:18:05;11.40;;;8.20;;
83278;SDS011;73398;51.844;10.790;2024-01-30T10:20:34;12.00;;;7.93;;
83278;SDS011;73398;51.844;10.790;2024-01-30T10:23:00;12.85;;;7.95;;
83278;SDS011;73398;51.844;10.790;2024-01-30T10:25:27;13.05;;;7.72;;
83278;SDS011;73398;51.844;10.790;2024-01-30T10:27:53;11.98;;;7.97;;
83278;SDS011;73398;51.844;10.790;2024-01-30T10:30:23;13.50;;;7.53;;
83278;SDS011;73398;51.844;10.790;2024-01-30T10:32:49;13.80;;;8.30;;
83278;SDS011;73398;51.844;10.790;2024-01-30T10:35:15;13.15;;;8.27;;
83278;SDS011;73398;51.844;10.790;2024-01-30T10:37:44;12.55;;;8.50;;
83278;SDS011;73398;51.844;10.790;2024-01-30T10:40:12;13.07;;;9.00;;
83278;SDS011;73398;51.844;10.790;2024-01-30T10:42:40;12.13;;;8.52;;
83278;SDS011;73398;51.844;10.790;2024-01-30T10:47:36;11.68;;;8.10;;
83278;SDS011;73398;51.844;10.790;2024-01-30T10:50:02;12.52;;;8.68;;
83278;SDS011;73398;51.844;10.790;2024-01-30T10:52:29;16.92;;;8.80;;
83278;SDS011;73398;51.844;10.790;2024-01-30T10:54:55;11.95;;;8.32;;
83278;SDS011;73398;51.844;10.790;2024-01-30T10:57:22;8.10;;;7.28;;
83278;SDS011;73398;51.844;10.790;2024-01-30T10:59:49;11.55;;;7.00;;
83278;SDS011;73398;51.844;10.790;2024-01-30T11:02:17;11.60;;;8.90;;
83278;SDS011;73398;51.844;10.790;2024-01-30T11:04:44;11.18;;;7.90;;
83278;SDS011;73398;51.844;10.790;2024-01-30T11:07:17;8.55;;;6.32;;
83278;SDS011;73398;51.844;10.790;2024-01-30T11:09:49;8.77;;;5.97;;
83278;SDS011;73398;51.844;10.790;2024-01-30T11:12:16;10.23;;;6.70;;
83278;SDS011;73398;51.844;10.790;2024-01-30T11:14:42;8.40;;;6.63;;
83278;SDS011;73398;51.844;10.790;2024-01-30T11:17:09;9.93;;;7.40;;
83278;SDS011;73398;51.844;10.790;2024-01-30T11:19:37;10.15;;;7.75;;
83278;SDS011;73398;51.844;10.790;2024-01-30T11:22:06;9.20;;;7.07;;
83278;SDS011;73398;51.844;10.790;2024-01-30T11:24:36;9.27;;;6.55;;
83278;SDS011;73398;51.844;10.790;2024-01-30T11:27:07;9.70;;;6.60;;
83278;SDS011;73398;51.844;10.790;2024-01-30T11:29:34;8.45;;;6.28;;
83278;SDS011;73398;51.844;10.790;2024-01-30T11:32:00;10.80;;;7.32;;
83278;SDS011;73398;51.844;10.790;2024-01-30T11:34:27;9.55;;;6.72;;
83278;SDS011;73398;51.844;10.790;2024-01-30T11:36:56;11.95;;;6.65;;
83278;SDS011;73398;51.844;10.790;2024-01-30T11:39:26;7.38;;;6.60;;
83278;SDS011;73398;51.844;10.790;2024-01-30T11:41:53;7.55;;;6.38;;
83278;SDS011;73398;51.844;10.790;2024-01-30T11:44:19;7.05;;;6.40;;
83278;SDS011;73398;51.844;10.790;2024-01-30T11:46:46;8.00;;;6.40;;
83278;SDS011;73398;51.844;10.790;2024-01-30T11:49:12;7.15;;;4.75;;
83278;SDS011;73398;51.844;10.790;2024-01-30T11:51:39;9.75;;;6.28;;
83278;SDS011;73398;51.844;10.790;2024-01-30T11:54:05;7.68;;;6.88;;
83278;SDS011;73398;51.844;10.790;2024-01-30T11:56:31;10.65;;;6.70;;
83278;SDS011;73398;51.844;10.790;2024-01-30T11:58:57;8.68;;;5.60;;
83278;SDS011;73398;51.844;10.790;2024-01-30T12:01:25;8.52;;;6.10;;
83278;SDS011;73398;51.844;10.790;2024-01-30T12:03:51;8.63;;;6.00;;
83278;SDS011;73398;51.844;10.790;2024-01-30T12:06:17;6.00;;;5.13;;
83278;SDS011;73398;51.844;10.790;2024-01-30T12:08:43;7.47;;;5.30;;
83278;SDS011;73398;51.844;10.790;2024-01-30T12:11:19;7.80;;;6.25;;
83278;SDS011;73398;51.844;10.790;2024-01-30T12:13:45;8.13;;;6.70;;
83278;SDS011;73398;51.844;10.790;2024-01-30T12:16:11;9.25;;;6.15;;
83278;SDS011;73398;51.844;10.790;2024-01-30T12:18:38;8.63;;;6.05;;
83278;SDS011;73398;51.844;10.790;2024-01-30T12:21:04;6.65;;;5.93;;
83278;SDS011;73398;51.844;10.790;2024-01-30T12:23:30;7.68;;;6.05;;
83278;SDS011;73398;51.844;10.790;2024-01-30T12:25:56;7.75;;;5.93;;
83278;SDS011;73398;51.844;10.790;2024-01-30T12:28:22;8.98;;;5.93;;
83278;SDS011;73398;51.844;10.790;2024-01-30T12:30:48;8.93;;;6.00;;
83278;SDS011;73398;51.844;10.790;2024-01-30T12:33:17;7.95;;;5.60;;
83278;SDS011;73398;51.844;10.790;2024-01-30T12:35:47;8.43;;;5.97;;
83278;SDS011;73398;51.844;10.790;2024-01-30T12:38:13;7.75;;;4.82;;
83278;SDS011;73398;51.844;10.790;2024-01-30T12:40:39;8.05;;;5.43;;
83278;SDS011;73398;51.844;10.790;2024-01-30T12:43:05;6.78;;;5.30;;
83278;SDS011;73398;51.844;10.790;2024-01-30T12:45:31;6.95;;;5.82;;
83278;SDS011;73398;51.844;10.790;2024-01-30T12:47:57;8.95;;;6.00;;
83278;SDS011;73398;51.844;10.790;2024-01-30T12:50:23;12.88;;;6.78;;
83278;SDS011;73398;51.844;10.790;2024-01-30T12:52:49;8.95;;;5.90;;
83278;SDS011;73398;51.844;10.790;2024-01-30T12:55:18;9.13;;;6.20;;
83278;SDS011;73398;51.844;10.790;2024-01-30T12:57:44;9.52;;;7.88;;
83278;SDS011;73398;51.844;10.790;2024-01-30T13:00:10;12.95;;;8.27;;
83278;SDS011;73398;51.844;10.790;2024-01-30T13:02:37;10.43;;;6.30;;
83278;SDS011;73398;51.844;10.790;2024-01-30T13:05:03;10.90;;;6.65;;
83278;SDS011;73398;51.844;10.790;2024-01-30T13:07:29;8.10;;;6.63;;
83278;SDS011;73398;51.844;10.790;2024-01-30T13:09:56;8.82;;;5.82;;
83278;SDS011;73398;51.844;10.790;2024-01-30T13:12:27;9.32;;;5.85;;
83278;SDS011;73398;51.844;10.790;2024-01-30T13:14:53;8.50;;;6.07;;
83278;SDS011;73398;51.844;10.790;2024-01-30T13:17:20;7.38;;;5.97;;
83278;SDS011;73398;51.844;10.790;2024-01-30T13:19:46;10.25;;;6.47;;
83278;SDS011;73398;51.844;10.790;2024-01-30T13:22:14;9.10;;;6.35;;
83278;SDS011;73398;51.844;10.790;2024-01-30T13:24:40;7.05;;;4.75;;
83278;SDS011;73398;51.844;10.790;2024-01-30T13:27:06;7.97;;;5.80;;
83278;SDS011;73398;51.844;10.790;2024-01-30T13:29:32;7.38;;;5.13;;
83278;SDS011;73398;51.844;10.790;2024-01-30T13:31:58;8.88;;;4.78;;
83278;SDS011;73398;51.844;10.790;2024-01-30T13:34:24;6.35;;;5.10;;
83278;SDS011;73398;51.844;10.790;2024-01-30T13:36:50;6.85;;;4.30;;
83278;SDS011;73398;51.844;10.790;2024-01-30T13:39:16;8.45;;;5.55;;
83278;SDS011;73398;51.844;10.790;2024-01-30T13:41:42;8.23;;;5.57;;
83278;SDS011;73398;51.844;10.790;2024-01-30T13:44:08;6.55;;;5.43;;
83278;SDS011;73398;51.844;10.790;2024-01-30T13:46:34;7.10;;;4.88;;
83278;SDS011;73398;51.844;10.790;2024-01-30T13:49:00;8.18;;;5.53;;
83278;SDS011;73398;51.844;10.790;2024-01-30T13:51:26;6.85;;;5.25;;
83278;SDS011;73398;51.844;10.790;2024-01-30T13:53:52;8.10;;;5.38;;
83278;SDS011;73398;51.844;10.790;2024-01-30T13:56:21;8.38;;;5.68;;
83278;SDS011;73398;51.844;10.790;2024-01-30T13:58:48;7.63;;;5.45;;
83278;SDS011;73398;51.844;10.790;2024-01-30T14:01:17;10.50;;;7.35;;
83278;SDS011;73398;51.844;10.790;2024-01-30T14:03:43;10.55;;;6.63;;
83278;SDS011;73398;51.844;10.790;2024-01-30T14:06:09;9.27;;;6.85;;
83278;SDS011;73398;51.844;10.790;2024-01-30T14:08:35;8.32;;;5.85;;
83278;SDS011;73398;51.844;10.790;2024-01-30T14:11:01;11.88;;;6.25;;
83278;SDS011;73398;51.844;10.790;2024-01-30T14:13:28;11.13;;;6.72;;
83278;SDS011;73398;51.844;10.790;2024-01-30T14:15:55;8.52;;;6.47;;
83278;SDS011;73398;51.844;10.790;2024-01-30T14:18:21;8.70;;;6.28;;
83278;SDS011;73398;51.844;10.790;2024-01-30T14:20:47;9.07;;;6.28;;
83278;SDS011;73398;51.844;10.790;2024-01-30T14:23:13;8.57;;;6.47;;